Observation data for Hart on 12/10/2018      Previous  Date       Current Mesonet Observations  Soil Data  Daily Summary Page  Observations in Plain Language
KHRS 100600Z 28006KT M03/M04 A3037 RMK A01 T10311041  RH  094%=      5-min Rain = 0
KHRS 100605Z 29006KT M03/M04 A3037 RMK A01 T10311041  RH  094%=      5-min Rain = 0
KHRS 100610Z 30006KT M03/M04 A3037 RMK A01 T10321042  RH  094%=      5-min Rain = 0
KHRS 100615Z 29006KT M03/M04 A3036 RMK A01 T10321041  RH  094%=      5-min Rain = 0
KHRS 100620Z 28007KT M03/M04 A3036 RMK A01 T10301039  RH  095%=      5-min Rain = 0
KHRS 100625Z 27007KT M03/M04 A3036 RMK A01 T10291038  RH  094%=      5-min Rain = 0
KHRS 100630Z 28006KT M03/M04 A3036 RMK A01 T10291039  RH  094%=      5-min Rain = 0
KHRS 100635Z 28007KT M03/M04 A3036 RMK A01 T10301040  RH  094%=      5-min Rain = 0
KHRS 100640Z 28007KT M03/M04 A3036 RMK A01 T10301039  RH  094%=      5-min Rain = 0
KHRS 100645Z 29007KT M03/M04 A3036 RMK A01 T10301040  RH  094%=      5-min Rain = 0
KHRS 100650Z 29007KT M03/M04 A3036 RMK A01 T10301040  RH  094%=      5-min Rain = 0
KHRS 100655Z 29007KT M03/M04 A3036 RMK A01 T10301040  RH  094%=      5-min Rain = 0
KHRS 100700Z 29007KT M03/M04 A3035 RMK A01 T10301040  RH  094%=      5-min Rain = 0
KHRS 100705Z 29007KT M03/M04 A3035 RMK A01 T10321041  RH  094%=      5-min Rain = 0
KHRS 100710Z 29007KT M03/M04 A3035 RMK A01 T10321042  RH  094%=      5-min Rain = 0
KHRS 100715Z 30006KT M03/M04 A3035 RMK A01 T10331043  RH  094%=      5-min Rain = 0
KHRS 100720Z 30006KT M03/M05 A3035 RMK A01 T10341045  RH  093%=      5-min Rain = 0
KHRS 100725Z 30007KT M04/M05 A3034 RMK A01 T10351046  RH  093%=      5-min Rain = 0
KHRS 100730Z 30006KT M04/M05 A3034 RMK A01 T10361047  RH  093%=      5-min Rain = 0
KHRS 100735Z 30005KT M04/M05 A3034 RMK A01 T10381049  RH  093%=      5-min Rain = 0
KHRS 100740Z 30004KT M04/M05 A3033 RMK A01 T10391051  RH  093%=      5-min Rain = 0
KHRS 100745Z 30004KT M04/M05 A3033 RMK A01 T10401051  RH  093%=      5-min Rain = 0
KHRS 100750Z 30004KT M04/M05 A3033 RMK A01 T10411052  RH  093%=      5-min Rain = 0
KHRS 100755Z 30004KT M04/M05 A3033 RMK A01 T10411052  RH  093%=      5-min Rain = 0
KHRS 100800Z 30005KT M04/M05 A3033 RMK A01 T10411051  RH  093%=      5-min Rain = 0
KHRS 100805Z 30006KT M04/M05 A3033 RMK A01 T10411051  RH  093%=      5-min Rain = 0
KHRS 100810Z 30006KT M04/M05 A3033 RMK A01 T10411053  RH  093%=      5-min Rain = 0
KHRS 100815Z 29006KT M04/M05 A3033 RMK A01 T10411053  RH  093%=      5-min Rain = 0
KHRS 100820Z 29006KT M04/M05 A3033 RMK A01 T10411053  RH  092%=      5-min Rain = 0
KHRS 100825Z 29006KT M04/M05 A3033 RMK A01 T10411053  RH  092%=      5-min Rain = 0
KHRS 100830Z 29005KT M04/M06 A3033 RMK A01 T10421056  RH  091%=      5-min Rain = 0
KHRS 100835Z 28005KT M04/M06 A3033 RMK A01 T10441058  RH  091%=      5-min Rain = 0
KHRS 100840Z 28005KT M05/M06 A3033 RMK A01 T10451058  RH  091%=      5-min Rain = 0
KHRS 100845Z 28005KT M05/M06 A3033 RMK A01 T10461059  RH  091%=      5-min Rain = 0
KHRS 100850Z 29006KT M05/M06 A3033 RMK A01 T10481061  RH  092%=      5-min Rain = 0
KHRS 100855Z 28006KT M05/M06 A3033 RMK A01 T10491061  RH  092%=      5-min Rain = 0
KHRS 100900Z 28007KT M05/M06 A3032 RMK A01 T10491061  RH  092%=      5-min Rain = 0
KHRS 100905Z 28006KT M05/M06 A3032 RMK A01 T10491061  RH  092%=      5-min Rain = 0
KHRS 100910Z 28006KT M05/M06 A3032 RMK A01 T10491062  RH  092%=      5-min Rain = 0
KHRS 100915Z 28005KT M05/M06 A3032 RMK A01 T10501062  RH  092%=      5-min Rain = 0
KHRS 100920Z 28005KT M05/M06 A3032 RMK A01 T10501063  RH  092%=      5-min Rain = 0
KHRS 100925Z 27005KT M05/M06 A3032 RMK A01 T10501063  RH  092%=      5-min Rain = 0
KHRS 100930Z 27005KT M05/M06 A3032 RMK A01 T10521064  RH  092%=      5-min Rain = 0
KHRS 100935Z 27005KT M05/M06 A3032 RMK A01 T10521064  RH  092%=      5-min Rain = 0
KHRS 100940Z 27006KT M05/M06 A3032 RMK A01 T10521064  RH  092%=      5-min Rain = 0
KHRS 100945Z 27005KT M05/M07 A3032 RMK A01 T10531065  RH  092%=      5-min Rain = 0
KHRS 100950Z 27006KT M05/M07 A3032 RMK A01 T10531065  RH  092%=      5-min Rain = 0
KHRS 100955Z 27006KT M05/M06 A3032 RMK A01 T10531064  RH  093%=      5-min Rain = 0
KHRS 101000Z 27006KT M05/M06 A3032 RMK A01 T10531064  RH  093%=      5-min Rain = 0
KHRS 101005Z 27006KT M05/M07 A3032 RMK A01 T10531065  RH  093%=      5-min Rain = 0
KHRS 101010Z 27007KT M05/M07 A3032 RMK A01 T10531065  RH  093%=      5-min Rain = 0
KHRS 101015Z 27007KT M05/M06 A3032 RMK A01 T10521063  RH  093%=      5-min Rain = 0
KHRS 101020Z 27007KT M05/M06 A3032 RMK A01 T10521063  RH  093%=      5-min Rain = 0
KHRS 101025Z 26008KT M05/M07 A3032 RMK A01 T10541066  RH  092%=      5-min Rain = 0
KHRS 101030Z 27008KT M06/M07 A3032 RMK A01 T10551067  RH  092%=      5-min Rain = 0
KHRS 101035Z 27007KT M06/M07 A3032 RMK A01 T10551067  RH  093%=      5-min Rain = 0
KHRS 101040Z 27007KT M05/M07 A3032 RMK A01 T10541065  RH  093%=      5-min Rain = 0
KHRS 101045Z 27007KT M05/M07 A3032 RMK A01 T10541065  RH  093%=      5-min Rain = 0
KHRS 101050Z 27007KT M06/M07 A3031 RMK A01 T10551067  RH  093%=      5-min Rain = 0
KHRS 101055Z 28006KT M06/M07 A3031 RMK A01 T10561067  RH  093%=      5-min Rain = 0
KHRS 101100Z 28005KT M06/M07 A3031 RMK A01 T10571067  RH  093%=      5-min Rain = 0
KHRS 101105Z 28006KT M06/M07 A3031 RMK A01 T10561067  RH  093%=      5-min Rain = 0
KHRS 101110Z 28005KT M06/M07 A3031 RMK A01 T10561066  RH  094%=      5-min Rain = 0
KHRS 101115Z 28005KT M06/M07 A3031 RMK A01 T10551065  RH  094%=      5-min Rain = 0
KHRS 101120Z 28004KT M06/M07 A3031 RMK A01 T10551065  RH  094%=      5-min Rain = 0
KHRS 101125Z 28005KT M06/M07 A3031 RMK A01 T10571067  RH  093%=      5-min Rain = 0
KHRS 101130Z 28005KT M06/M07 A3031 RMK A01 T10571067  RH  094%=      5-min Rain = 0
KHRS 101135Z 28005KT M06/M07 A3031 RMK A01 T10571066  RH  094%=      5-min Rain = 0
KHRS 101140Z 28005KT M06/M07 A3031 RMK A01 T10571066  RH  094%=      5-min Rain = 0
KHRS 101145Z 27006KT M06/M07 A3032 RMK A01 T10571067  RH  094%=      5-min Rain = 0
KHRS 101150Z 27005KT M06/M07 A3032 RMK A01 T10571067  RH  094%=      5-min Rain = 0
KHRS 101155Z 26005KT M06/M07 A3032 RMK A01 T10581067  RH  094%=      5-min Rain = 0
KHRS 101200Z 26006KT M06/M07 A3032 RMK A01 T10591068  RH  094%=      5-min Rain = 0
KHRS 101205Z 26006KT M06/M07 A3032 RMK A01 T10601069  RH  094%=      5-min Rain = 0
KHRS 101210Z 27006KT M06/M07 A3032 RMK A01 T10611070  RH  094%=      5-min Rain = 0
KHRS 101215Z 27005KT M06/M07 A3032 RMK A01 T10611070  RH  094%=      5-min Rain = 0
KHRS 101220Z 27005KT M06/M07 A3032 RMK A01 T10611069  RH  095%=      5-min Rain = 0
KHRS 101225Z 27005KT M06/M07 A3032 RMK A01 T10601069  RH  095%=      5-min Rain = 0
KHRS 101230Z 27006KT M06/M07 A3033 RMK A01 T10591067  RH  095%=      5-min Rain = 0
KHRS 101235Z 27007KT M06/M06 A3033 RMK A01 T10551063  RH  095%=      5-min Rain = 0
KHRS 101240Z 27007KT M05/M06 A3033 RMK A01 T10531061  RH  095%=      5-min Rain = 0
KHRS 101245Z 28006KT M05/M06 A3033 RMK A01 T10541063  RH  095%=      5-min Rain = 0
KHRS 101250Z 28006KT M06/M06 A3033 RMK A01 T10551064  RH  095%=      5-min Rain = 0
KHRS 101255Z 28005KT M06/M07 A3033 RMK A01 T10561065  RH  095%=      5-min Rain = 0
KHRS 101300Z 28006KT M06/M07 A3033 RMK A01 T10561065  RH  095%=      5-min Rain = 0
KHRS 101305Z 28005KT M06/M06 A3033 RMK A01 T10561064  RH  095%=      5-min Rain = 0
KHRS 101310Z 27006KT M06/M06 A3033 RMK A01 T10561064  RH  095%=      5-min Rain = 0
KHRS 101315Z 27006KT M06/M07 A3033 RMK A01 T10571065  RH  095%=      5-min Rain = 0
KHRS 101320Z 27006KT M06/M07 A3032 RMK A01 T10571065  RH  095%=      5-min Rain = 0
KHRS 101325Z 27007KT M06/M07 A3032 RMK A01 T10571065  RH  095%=      5-min Rain = 0
KHRS 101330Z 27007KT M06/M06 A3032 RMK A01 T10561064  RH  095%=      5-min Rain = 0
KHRS 101335Z 27007KT M06/M06 A3032 RMK A01 T10561064  RH  095%=      5-min Rain = 0
KHRS 101340Z 27006KT M06/M06 A3033 RMK A01 T10561064  RH  095%=      5-min Rain = 0
KHRS 101345Z 27006KT M06/M06 A3033 RMK A01 T10561064  RH  095%=      5-min Rain = 0
KHRS 101350Z 27007KT M06/M06 A3033 RMK A01 T10551063  RH  095%=      5-min Rain = 0
KHRS 101355Z 27007KT M05/M06 A3033 RMK A01 T10541062  RH  095%=      5-min Rain = 0
KHRS 101400Z 27006KT M05/M06 A3034 RMK A01 T10541062  RH  095%=      5-min Rain = 0
KHRS 101405Z 27006KT M05/M06 A3034 RMK A01 T10531061  RH  095%=      5-min Rain = 0
KHRS 101410Z 26006KT M05/M06 A3034 RMK A01 T10521061  RH  095%=      5-min Rain = 0
KHRS 101415Z 26006KT M05/M06 A3034 RMK A01 T10511060  RH  095%=      5-min Rain = 0
KHRS 101420Z 27005KT M05/M06 A3034 RMK A01 T10491058  RH  095%=      5-min Rain = 0
KHRS 101425Z 27005KT M05/M06 A3034 RMK A01 T10471055  RH  095%=      5-min Rain = 0
KHRS 101430Z 27006KT M05/M05 A3035 RMK A01 T10451053  RH  095%=      5-min Rain = 0
KHRS 101435Z 27006KT M04/M05 A3035 RMK A01 T10421051  RH  095%=      5-min Rain = 0
KHRS 101440Z 26007KT M04/M05 A3035 RMK A01 T10391047  RH  095%=      5-min Rain = 0
KHRS 101445Z 25007KT M04/M05 A3035 RMK A01 T10371046  RH  095%=      5-min Rain = 0
KHRS 101450Z 24007KT M03/M04 A3035 RMK A01 T10331042  RH  095%=      5-min Rain = 0
KHRS 101455Z 25006KT M03/M04 A3035 RMK A01 T10291037  RH  095%=      5-min Rain = 0
KHRS 101500Z 26006KT M03/M03 A3035 RMK A01 T10251033  RH  095%=      5-min Rain = 0
KHRS 101505Z 26005KT M02/M03 A3035 RMK A01 T10221031  RH  095%=      5-min Rain = 0
KHRS 101510Z 27005KT M02/M03 A3035 RMK A01 T10191028  RH  095%=      5-min Rain = 0
KHRS 101515Z 27005KT M01/M02 A3035 RMK A01 T10141023  RH  095%=      5-min Rain = 0
KHRS 101520Z 27004KT M01/M02 A3036 RMK A01 T10101020  RH  094%=      5-min Rain = 0
KHRS 101525Z 28005KT M01/M02 A3036 RMK A01 T10061017  RH  093%=      5-min Rain = 0
KHRS 101530Z 27006KT M00/M02 A3036 RMK A01 T10041016  RH  092%=      5-min Rain = 0
KHRS 101535Z 28005KT M00/M02 A3036 RMK A01 T10021016  RH  092%=      5-min Rain = 0
KHRS 101540Z 29005KT 00/01 A3036 RMK A01 T00-00-14  RH  091%=      5-min Rain = 0
KHRS 101545Z 28005KT 00/M01 A3036 RMK A01 T00011014  RH  091%=      5-min Rain = 0
KHRS 101550Z 26005KT 01/M01 A3036 RMK A01 T00051009  RH  091%=      5-min Rain = 0
KHRS 101555Z 26006KT 01/M01 A3036 RMK A01 T00061010  RH  090%=      5-min Rain = 0
KHRS 101600Z 26007KT 01/M01 A3036 RMK A01 T00071009  RH  090%=      5-min Rain = 0
KHRS 101605Z 26008KT 01/M01 A3036 RMK A01 T00101006  RH  090%=      5-min Rain = 0
KHRS 101610Z 26007KT 01/M01 A3036 RMK A01 T00131005  RH  088%=      5-min Rain = 0
KHRS 101615Z 27006KT 02/M00 A3036 RMK A01 T00171003  RH  088%=      5-min Rain = 0
KHRS 101620Z 27006KT 02/00 A3036 RMK A01 T00210000  RH  087%=      5-min Rain = 0
KHRS 101625Z 28006KT 03/00 A3036 RMK A01 T00260002  RH  085%=      5-min Rain = 0
KHRS 101630Z 28006KT 03/00 A3036 RMK A01 T00300003  RH  084%=      5-min Rain = 0
KHRS 101635Z 27006KT 03/00 A3036 RMK A01 T00340004  RH  082%=      5-min Rain = 0
KHRS 101640Z 26005KT 04/01 A3036 RMK A01 T00380007  RH  081%=      5-min Rain = 0
KHRS 101645Z 26006KT 04/01 A3036 RMK A01 T00420008  RH  079%=      5-min Rain = 0
KHRS 101650Z 26006KT 05/01 A3035 RMK A01 T00450009  RH  078%=      5-min Rain = 0
KHRS 101655Z 26006KT 05/01 A3035 RMK A01 T00490010  RH  077%=      5-min Rain = 0
KHRS 101700Z 26005KT 05/01 A3035 RMK A01 T00540013  RH  076%=      5-min Rain = 0
KHRS 101705Z 27006KT 06/01 A3035 RMK A01 T00570012  RH  073%=      5-min Rain = 0
KHRS 101710Z 28006KT 06/01 A3035 RMK A01 T00620012  RH  071%=      5-min Rain = 0
KHRS 101715Z 28007KT 07/01 A3034 RMK A01 T00650010  RH  069%=      5-min Rain = 0
KHRS 101720Z 27007KT 07/02 A3034 RMK A01 T00720016  RH  068%=      5-min Rain = 0
KHRS 101725Z 25007KT 08/02 A3034 RMK A01 T00750015  RH  067%=      5-min Rain = 0
KHRS 101730Z 25006KT 08/02 A3034 RMK A01 T00770017  RH  067%=      5-min Rain = 0
KHRS 101735Z 24006KT 08/02 A3034 RMK A01 T00780016  RH  065%=      5-min Rain = 0
KHRS 101740Z 24007KT 08/01 A3033 RMK A01 T00800014  RH  064%=      5-min Rain = 0
KHRS 101745Z 26006KT 08/01 A3033 RMK A01 T00800013  RH  063%=      5-min Rain = 0
KHRS 101750Z 26006KT 08/01 A3033 RMK A01 T00840014  RH  062%=      5-min Rain = 0
KHRS 101755Z 25005KT 08/02 A3033 RMK A01 T00840016  RH  063%=      5-min Rain = 0
KHRS 101800Z 25004KT 09/02 A3033 RMK A01 T00880017  RH  062%=      5-min Rain = 0
KHRS 101805Z 26005KT 09/01 A3032 RMK A01 T00880013  RH  060%=      5-min Rain = 0
KHRS 101810Z 26004KT 09/02 A3032 RMK A01 T00930018  RH  060%=      5-min Rain = 0
KHRS 101815Z 26004KT 09/01 A3032 RMK A01 T00940014  RH  058%=      5-min Rain = 0
KHRS 101820Z 26005KT 10/01 A3032 RMK A01 T00970013  RH  057%=      5-min Rain = 0
KHRS 101825Z 24007KT 10/01 A3031 RMK A01 T00990013  RH  056%=      5-min Rain = 0
KHRS 101830Z 22006KT 10/01 A3031 RMK A01 T01020012  RH  054%=      5-min Rain = 0
KHRS 101835Z 23005KT 10/02 A3031 RMK A01 T01010015  RH  056%=      5-min Rain = 0
KHRS 101840Z 22004KT 10/02 A303 RMK A01 T01010015  RH  056%=      5-min Rain = 0
KHRS 101845Z 24005KT 10/01 A303 RMK A01 T01030012  RH  054%=      5-min Rain = 0
KHRS 101850Z 24004KT 11/02 A303 RMK A01 T01070015  RH  053%=      5-min Rain = 0
KHRS 101855Z 24005KT 11/01 A3029 RMK A01 T01090008  RH  050%=      5-min Rain = 0
KHRS 101900Z 24004KT 11/01 A3029 RMK A01 T01090009  RH  050%=      5-min Rain = 0
KHRS 101905Z 24005KT 11/01 A3029 RMK A01 T01110009  RH  050%=      5-min Rain = 0
KHRS 101910Z 24005KT 11/01 A3029 RMK A01 T01130009  RH  049%=      5-min Rain = 0
KHRS 101915Z 23005KT 12/01 A3028 RMK A01 T01160009  RH  048%=      5-min Rain = 0
KHRS 101920Z 23006KT 12/01 A3028 RMK A01 T01190009  RH  047%=      5-min Rain = 0
KHRS 101925Z 23005KT 12/01 A3028 RMK A01 T01180005  RH  046%=      5-min Rain = 0
KHRS 101930Z 22005KT 12/01 A3028 RMK A01 T01180012  RH  049%=      5-min Rain = 0
KHRS 101935Z 23005KT 12/00 A3028 RMK A01 T01180004  RH  046%=      5-min Rain = 0
KHRS 101940Z 20007KT 12/01 A3027 RMK A01 T01200013  RH  048%=      5-min Rain = 0
KHRS 101945Z 20008KT 12/01 A3027 RMK A01 T01200013  RH  048%=      5-min Rain = 0
KHRS 101950Z 19007KT 12/01 A3027 RMK A01 T01190010  RH  048%=      5-min Rain = 0
KHRS 101955Z 20007KT 12/01 A3027 RMK A01 T01190008  RH  047%=      5-min Rain = 0
KHRS 102000Z 20007KT 12/01 A3027 RMK A01 T01200006  RH  046%=      5-min Rain = 0
KHRS 102005Z 19008KT 12/01 A3026 RMK A01 T01190006  RH  046%=      5-min Rain = 0
KHRS 102010Z 19007KT 12/01 A3026 RMK A01 T01200009  RH  047%=      5-min Rain = 0
KHRS 102015Z 21007G12KT 12/01 A3026 RMK A01 T01230006  RH  045%=      5-min Rain = 0
KHRS 102020Z 21008G13KT 12/01 A3026 RMK A01 T01230006  RH  045%=      5-min Rain = 0
KHRS 102025Z 20008KT 12/01 A3026 RMK A01 T01220006  RH  045%=      5-min Rain = 0
KHRS 102030Z 22009KT 12/00 A3026 RMK A01 T01230003  RH  044%=      5-min Rain = 0
KHRS 102035Z 22009KT 12/00 A3026 RMK A01 T01230000  RH  043%=      5-min Rain = 0
KHRS 102040Z 22009KT 12/M01 A3026 RMK A01 T01241008  RH  041%=      5-min Rain = 0
KHRS 102045Z 23008KT 12/M01 A3026 RMK A01 T01241010  RH  040%=      5-min Rain = 0
KHRS 102050Z 23009G14KT 12/M01 A3026 RMK A01 T01241009  RH  040%=      5-min Rain = 0
KHRS 102055Z 22009KT 13/M02 A3025 RMK A01 T01251018  RH  037%=      5-min Rain = 0
KHRS 102100Z 23008KT 12/M02 A3025 RMK A01 T01241019  RH  037%=      5-min Rain = 0
KHRS 102105Z 24007KT 13/M02 A3025 RMK A01 T01251020  RH  037%=      5-min Rain = 0
KHRS 102110Z 22010KT 13/M02 A3025 RMK A01 T01251022  RH  036%=      5-min Rain = 0
KHRS 102115Z 22009KT 13/M02 A3025 RMK A01 T01261024  RH  036%=      5-min Rain = 0
KHRS 102120Z 23009KT 13/M03 A3025 RMK A01 T01251028  RH  035%=      5-min Rain = 0
KHRS 102125Z 24008KT 13/M03 A3025 RMK A01 T01251026  RH  035%=      5-min Rain = 0
KHRS 102130Z 22009KT 13/M03 A3025 RMK A01 T01251027  RH  035%=      5-min Rain = 0
KHRS 102135Z 22008KT 13/M03 A3024 RMK A01 T01251028  RH  035%=      5-min Rain = 0
KHRS 102140Z 22007KT 13/M03 A3024 RMK A01 T01271026  RH  035%=      5-min Rain = 0
KHRS 102145Z 24008KT 13/M03 A3024 RMK A01 T01271032  RH  033%=      5-min Rain = 0
KHRS 102150Z 23007KT 13/M04 A3024 RMK A01 T01251036  RH  033%=      5-min Rain = 0
KHRS 102155Z 23007KT 13/M04 A3024 RMK A01 T01261036  RH  032%=      5-min Rain = 0
KHRS 102200Z 23007KT 13/M04 A3024 RMK A01 T01271036  RH  032%=      5-min Rain = 0
KHRS 102205Z 23006G11KT 13/M04 A3024 RMK A01 T01271038  RH  032%=      5-min Rain = 0
KHRS 102210Z 23006KT 13/M03 A3024 RMK A01 T01271034  RH  033%=      5-min Rain = 0
KHRS 102215Z 24006KT 13/M04 A3024 RMK A01 T01261040  RH  032%=      5-min Rain = 0
KHRS 102220Z 23005KT 13/M04 A3024 RMK A01 T01251038  RH  032%=      5-min Rain = 0
KHRS 102225Z 23006KT 12/M04 A3024 RMK A01 T01241036  RH  033%=      5-min Rain = 0
KHRS 102230Z 22006KT 12/M03 A3024 RMK A01 T01231034  RH  034%=      5-min Rain = 0
KHRS 102235Z 21006KT 12/M03 A3025 RMK A01 T01201025  RH  037%=      5-min Rain = 0
KHRS 102240Z 17007KT 11/01 A3025 RMK A01 T01110014  RH  052%=      5-min Rain = 0
KHRS 102245Z 16006KT 10/02 A3025 RMK A01 T01040018  RH  056%=      5-min Rain = 0
KHRS 102250Z 17005KT 10/02 A3025 RMK A01 T00990020  RH  059%=      5-min Rain = 0
KHRS 102255Z 17004KT 09/02 A3025 RMK A01 T00940022  RH  061%=      5-min Rain = 0
KHRS 102300Z 16005KT 09/02 A3025 RMK A01 T00900022  RH  063%=      5-min Rain = 0
KHRS 102305Z 16004KT 09/02 A3025 RMK A01 T00860021  RH  065%=      5-min Rain = 0
KHRS 102310Z 15005KT 08/02 A3025 RMK A01 T00810020  RH  066%=      5-min Rain = 0
KHRS 102315Z 16006KT 08/02 A3025 RMK A01 T00770020  RH  068%=      5-min Rain = 0
KHRS 102320Z 16005KT 07/02 A3025 RMK A01 T00740021  RH  070%=      5-min Rain = 0
KHRS 102325Z 15004KT 07/02 A3025 RMK A01 T00690020  RH  072%=      5-min Rain = 0
KHRS 102330Z 15005KT 06/02 A3025 RMK A01 T00630018  RH  074%=      5-min Rain = 0
KHRS 102335Z 16005KT 06/02 A3025 RMK A01 T00590018  RH  076%=      5-min Rain = 0
KHRS 102340Z 15005KT 05/02 A3025 RMK A01 T00530015  RH  077%=      5-min Rain = 0
KHRS 102345Z 15005KT 05/01 A3025 RMK A01 T00480013  RH  079%=      5-min Rain = 0
KHRS 102350Z 15006KT 04/01 A3025 RMK A01 T00420009  RH  080%=      5-min Rain = 0
KHRS 102355Z 15006KT 04/01 A3025 RMK A01 T00390009  RH  081%=      5-min Rain = 0
KHRS 110000Z 15006KT 04/01 A3025 RMK A01 T00380008  RH  082%=      5-min Rain = 0
KHRS 110005Z 16007KT 04/01 A3025 RMK A01 T00400010  RH  082%=      5-min Rain = 0
KHRS 110010Z 16007KT 04/01 A3025 RMK A01 T00400009  RH  081%=      5-min Rain = 0
KHRS 110015Z 16006KT 04/01 A3025 RMK A01 T00370007  RH  082%=      5-min Rain = 0
KHRS 110020Z 15005KT 03/00 A3025 RMK A01 T00310002  RH  082%=      5-min Rain = 0
KHRS 110025Z 16006KT 03/00 A3025 RMK A01 T00260001  RH  085%=      5-min Rain = 0
KHRS 110030Z 17006KT 03/00 A3025 RMK A01 T00250003  RH  087%=      5-min Rain = 0
KHRS 110035Z 16007KT 02/00 A3025 RMK A01 T00230003  RH  087%=      5-min Rain = 0
KHRS 110040Z 16007KT 02/00 A3025 RMK A01 T00230004  RH  088%=      5-min Rain = 0
KHRS 110045Z 16006KT 02/M00 A3025 RMK A01 T00191001  RH  088%=      5-min Rain = 0
KHRS 110050Z 16006KT 02/M00 A3025 RMK A01 T00151003  RH  089%=      5-min Rain = 0
KHRS 110055Z 16006KT 02/M00 A3025 RMK A01 T00151001  RH  090%=      5-min Rain = 0
KHRS 110100Z 16007KT 01/M00 A3025 RMK A01 T00141002  RH  090%=      5-min Rain = 0
KHRS 110105Z 16007KT 01/M00 A3025 RMK A01 T00111004  RH  091%=      5-min Rain = 0
KHRS 110110Z 16007KT 01/M00 A3025 RMK A01 T00101004  RH  091%=      5-min Rain = 0
KHRS 110115Z 16008KT 01/M00 A3025 RMK A01 T00091004  RH  092%=      5-min Rain = 0
KHRS 110120Z 16007KT 01/M01 A3025 RMK A01 T00081005  RH  092%=      5-min Rain = 0
KHRS 110125Z 17006KT 01/M01 A3025 RMK A01 T00071006  RH  092%=      5-min Rain = 0
KHRS 110130Z 17006KT 01/M01 A3025 RMK A01 T00071006  RH  092%=      5-min Rain = 0
KHRS 110135Z 17006KT 01/M01 A3026 RMK A01 T00071005  RH  093%=      5-min Rain = 0
KHRS 110140Z 17005KT 01/M00 A3026 RMK A01 T00081004  RH  092%=      5-min Rain = 0
KHRS 110145Z 18006KT 01/M01 A3026 RMK A01 T00071006  RH  092%=      5-min Rain = 0
KHRS 110150Z 18007KT 01/M01 A3026 RMK A01 T00081005  RH  092%=      5-min Rain = 0
KHRS 110155Z 18008KT 01/00 A3026 RMK A01 T00130000  RH  092%=      5-min Rain = 0
KHRS 110200Z 18007KT 02/00 A3026 RMK A01 T001500-0  RH  091%=      5-min Rain = 0
KHRS 110205Z 19006KT 01/M01 A3026 RMK A01 T00121006  RH  089%=      5-min Rain = 0
KHRS 110210Z 19008KT 01/M01 A3026 RMK A01 T00081007  RH  091%=      5-min Rain = 0
KHRS 110215Z 19008KT 01/M00 A3026 RMK A01 T00101004  RH  091%=      5-min Rain = 0
KHRS 110220Z 19008KT 01/M01 A3026 RMK A01 T00111005  RH  090%=      5-min Rain = 0
KHRS 110225Z 19008KT 01/M00 A3026 RMK A01 T00121004  RH  090%=      5-min Rain = 0
KHRS 110230Z 19008KT 01/M01 A3026 RMK A01 T00121005  RH  090%=      5-min Rain = 0
KHRS 110235Z 19009KT 01/M01 A3026 RMK A01 T00111006  RH  089%=      5-min Rain = 0
KHRS 110240Z 19009KT 01/M01 A3025 RMK A01 T00101007  RH  089%=      5-min Rain = 0
KHRS 110245Z 19009KT 01/M01 A3025 RMK A01 T00091009  RH  089%=      5-min Rain = 0
KHRS 110250Z 20009KT 01/M01 A3025 RMK A01 T00081009  RH  089%=      5-min Rain = 0
KHRS 110255Z 20008KT 01/M01 A3026 RMK A01 T00061012  RH  089%=      5-min Rain = 0
KHRS 110300Z 20008KT 00/M02 A3026 RMK A01 T00021015  RH  090%=      5-min Rain = 0
KHRS 110305Z 20008KT 00/02 A3026 RMK A01 T00-00-15  RH  091%=      5-min Rain = 0
KHRS 110310Z 20008KT M00/M02 A3026 RMK A01 T10011015  RH  091%=      5-min Rain = 0
KHRS 110315Z 20008KT M00/M02 A3026 RMK A01 T10011015  RH  092%=      5-min Rain = 0
KHRS 110320Z 20008KT M00/M02 A3026 RMK A01 T10021015  RH  092%=      5-min Rain = 0
KHRS 110325Z 20008KT M00/M01 A3026 RMK A01 T10011014  RH  093%=      5-min Rain = 0
KHRS 110330Z 20008KT M00/M01 A3026 RMK A01 T10021014  RH  092%=      5-min Rain = 0
KHRS 110335Z 20008KT M00/M01 A3026 RMK A01 T10021014  RH  093%=      5-min Rain = 0
KHRS 110340Z 20008KT M00/M01 A3026 RMK A01 T10011013  RH  093%=      5-min Rain = 0
KHRS 110345Z 20008KT 00/01 A3026 RMK A01 T00-00-12  RH  093%=      5-min Rain = 0
KHRS 110350Z 20008KT 00/M01 A3026 RMK A01 T00011011  RH  093%=      5-min Rain = 0
KHRS 110355Z 19009KT 01/M01 A3026 RMK A01 T00051006  RH  093%=      5-min Rain = 0
KHRS 110400Z 19010KT 01/M00 A3026 RMK A01 T00111002  RH  092%=      5-min Rain = 0
KHRS 110405Z 19010KT 01/M00 A3026 RMK A01 T00131002  RH  091%=      5-min Rain = 0
KHRS 110410Z 19010KT 01/M00 A3026 RMK A01 T00131004  RH  090%=      5-min Rain = 0
KHRS 110415Z 19009KT 01/M01 A3026 RMK A01 T00111006  RH  090%=      5-min Rain = 0
KHRS 110420Z 19008KT 01/M01 A3026 RMK A01 T00091007  RH  090%=      5-min Rain = 0
KHRS 110425Z 19009KT 01/M01 A3026 RMK A01 T00091006  RH  091%=      5-min Rain = 0
KHRS 110430Z 19009KT 01/M01 A3026 RMK A01 T00091006  RH  090%=      5-min Rain = 0
KHRS 110435Z 19008KT 01/M01 A3026 RMK A01 T00071008  RH  090%=      5-min Rain = 0
KHRS 110440Z 19007KT 00/M01 A3026 RMK A01 T00041011  RH  091%=      5-min Rain = 0
KHRS 110445Z 19008KT 00/M01 A3026 RMK A01 T00031011  RH  092%=      5-min Rain = 0
KHRS 110450Z 19009KT 01/M01 A3026 RMK A01 T00051008  RH  092%=      5-min Rain = 0
KHRS 110455Z 19009KT 01/M01 A3026 RMK A01 T00061007  RH  092%=      5-min Rain = 0
KHRS 110500Z 19009KT 01/M01 A3025 RMK A01 T00061008  RH  091%=      5-min Rain = 0
KHRS 110505Z 20008KT 01/M01 A3025 RMK A01 T00061009  RH  091%=      5-min Rain = 0
KHRS 110510Z 20009KT 01/M01 A3026 RMK A01 T00051009  RH  091%=      5-min Rain = 0
KHRS 110515Z 21008KT 00/M01 A3026 RMK A01 T00041010  RH  091%=      5-min Rain = 0
KHRS 110520Z 21006KT 00/M01 A3025 RMK A01 T00031012  RH  091%=      5-min Rain = 0
KHRS 110525Z 21004KT M01/M02 A3025 RMK A01 T10061021  RH  090%=      5-min Rain = 0
KHRS 110530Z 21004KT M01/M02 A3025 RMK A01 T10111024  RH  092%=      5-min Rain = 0
KHRS 110535Z 22004KT M01/M03 A3025 RMK A01 T10141026  RH  092%=      5-min Rain = 0
KHRS 110540Z 22004KT M01/M03 A3025 RMK A01 T10141025  RH  093%=      5-min Rain = 0
KHRS 110545Z 21005KT M01/M02 A3025 RMK A01 T10131024  RH  094%=      5-min Rain = 0
KHRS 110550Z 23005KT M01/M02 A3025 RMK A01 T10131024  RH  093%=      5-min Rain = 0
KHRS 110555Z 23006KT M01/M02 A3025 RMK A01 T10131024  RH  094%=      5-min Rain = 0

Page generated in 0.0087 seconds.